Santa Anna, Texas
Current Conditions -  °F | °C
As of 12:55 AM on Friday 31 Oct 2014 (Local Time) from KCOM Reporting Station
Scattered Clouds Scattered Clouds  
Wind Chill: 66°   Ceiling: Unl
Heat Index: 66°   Visibility: 10mi
Dew Point: 61°   Wind: 10mph
Humidity: 83%   Direction: 30°NNE
Pressure: 30.23"   Gusts: NA
Location:  31.74°N, 99.32°W
Report Text: KCOM 310555Z AUTO 03009KT 10SM SCT075 SCT100 19/16 A3023 RMK AO2 LTG DSNT S T01890160 10248 20189 402820127
Loading
Personal Weather Stations






























Interactive Weather Map
Tropical Storm Tracking
New forecast layout! Learn more

10-Day Weather Forecast

Advertisements
Track Severe Weather on mobile